createdAt,value
2018-02-12T00:00:09.532Z,19.48
2018-02-12T00:01:18.491Z,19.54
2018-02-12T00:02:27.448Z,19.54
2018-02-12T00:03:36.400Z,19.56
2018-02-12T00:04:45.092Z,19.5
2018-02-12T00:05:53.781Z,19.51
2018-02-12T00:07:02.473Z,19.55
2018-02-12T00:08:11.430Z,19.5
2018-02-12T00:09:20.649Z,19.51
2018-02-12T00:10:29.873Z,19.44
2018-02-12T00:11:38.563Z,19.55
2018-02-12T00:12:48.054Z,19.48
2018-02-12T00:13:57.008Z,19.47
2018-02-12T00:15:05.965Z,19.55
2018-02-12T00:16:14.918Z,19.56
2018-02-12T00:17:23.606Z,19.54
2018-02-12T00:18:32.617Z,19.55
2018-02-12T00:19:41.307Z,19.47
2018-02-12T00:20:49.995Z,19.46
2018-02-12T00:21:59.226Z,19.51
2018-02-12T00:23:07.918Z,19.51
2018-02-12T00:24:17.133Z,19.54
2018-02-12T00:25:26.089Z,19.5
2018-02-12T00:26:35.046Z,19.47
2018-02-12T00:27:43.737Z,19.54
2018-02-12T00:28:52.694Z,19.5
2018-02-12T00:30:01.935Z,19.48
2018-02-12T00:31:10.878Z,19.55
2018-02-12T00:32:19.834Z,19.47
2018-02-12T00:33:29.052Z,19.51
2018-02-12T00:34:37.743Z,19.54
2018-02-12T00:35:46.434Z,19.55
2018-02-12T00:36:55.390Z,19.55
2018-02-12T00:38:04.080Z,19.51
2018-02-12T00:39:13.308Z,19.51
2018-02-12T00:40:22.263Z,19.5
2018-02-12T00:41:31.220Z,19.56
2018-02-12T00:42:39.909Z,19.51
2018-02-12T00:43:49.398Z,19.54
2018-02-12T00:44:58.088Z,19.56
2018-02-12T00:46:07.309Z,19.55
2018-02-12T00:47:16.527Z,19.5
2018-02-12T00:48:25.744Z,19.54
2018-02-12T00:49:34.707Z,19.46
2018-02-12T00:50:43.935Z,19.54
2018-02-12T00:51:53.422Z,19.54
2018-02-12T00:53:02.645Z,19.47
2018-02-12T00:54:11.603Z,19.47
2018-02-12T00:55:20.822Z,19.54
2018-02-12T00:56:29.779Z,19.47
2018-02-12T00:57:38.469Z,19.48
2018-02-12T00:58:47.691Z,19.59
2018-02-12T00:59:56.644Z,19.51
2018-02-12T01:01:05.866Z,19.47
2018-02-12T01:02:14.826Z,19.54
2018-02-12T01:03:23.513Z,19.56
2018-02-12T01:04:32.470Z,19.5
2018-02-12T01:05:41.162Z,19.51
2018-02-12T01:06:50.117Z,19.5
2018-02-12T01:07:59.073Z,19.54
2018-02-12T01:09:08.024Z,19.51
2018-02-12T01:10:17.248Z,19.44
2018-02-12T01:11:26.477Z,19.5
2018-02-12T01:12:35.166Z,19.51
2018-02-12T01:13:44.118Z,19.5
2018-02-12T01:14:53.075Z,19.51
2018-02-12T01:16:01.764Z,19.55
2018-02-12T01:17:10.716Z,19.51
2018-02-12T01:18:19.936Z,19.46
2018-02-12T01:19:29.432Z,19.5
2018-02-12T01:20:38.119Z,19.55
2018-02-12T01:21:46.809Z,19.54
2018-02-12T01:22:55.501Z,19.54
2018-02-12T01:24:04.192Z,19.47
2018-02-12T01:25:12.880Z,19.51
2018-02-12T01:26:21.831Z,19.46
2018-02-12T01:27:31.048Z,19.5
2018-02-12T01:28:40.273Z,19.55
2018-02-12T01:29:49.498Z,19.47
2018-02-12T01:30:58.192Z,19.55
2018-02-12T01:32:06.879Z,19.51
2018-02-12T01:33:16.098Z,19.5
2018-02-12T01:34:24.786Z,19.54
2018-02-12T01:35:33.477Z,19.43
2018-02-12T01:36:42.438Z,19.46
2018-02-12T01:37:51.664Z,19.51
2018-02-12T01:39:00.627Z,19.44
2018-02-12T01:40:09.587Z,19.47
2018-02-12T01:41:18.543Z,19.51
2018-02-12T01:42:27.233Z,19.47
2018-02-12T01:43:36.240Z,19.41
2018-02-12T01:44:45.460Z,19.46
2018-02-12T01:45:54.411Z,19.5
2018-02-12T01:47:03.636Z,19.46
2018-02-12T01:48:12.594Z,19.5
2018-02-12T01:49:21.815Z,19.55
2018-02-12T01:50:31.045Z,19.5
2018-02-12T01:51:39.997Z,19.5
2018-02-12T01:52:48.950Z,19.5
2018-02-12T01:53:57.646Z,19.46
2018-02-12T01:55:06.867Z,19.48
2018-02-12T01:56:15.821Z,19.5
2018-02-12T01:57:24.774Z,19.48
2018-02-12T01:58:33.996Z,19.5
2018-02-12T01:59:42.952Z,19.47
2018-02-12T02:00:51.904Z,19.44
2018-02-12T02:02:01.126Z,19.5
2018-02-12T02:03:09.816Z,19.48
2018-02-12T02:04:19.050Z,19.5
2018-02-12T02:05:28.006Z,19.44
2018-02-12T02:06:36.696Z,19.46
2018-02-12T02:07:45.651Z,19.47
2018-02-12T02:08:54.345Z,19.46
2018-02-12T02:10:03.033Z,19.47
2018-02-12T02:11:11.985Z,19.47
2018-02-12T02:12:20.674Z,19.48
2018-02-12T02:13:29.632Z,19.5
2018-02-12T02:14:38.852Z,19.46
2018-02-12T02:15:47.543Z,19.5
2018-02-12T02:16:56.497Z,19.44
2018-02-12T02:18:05.454Z,19.46
2018-02-12T02:19:14.147Z,19.47
2018-02-12T02:20:23.103Z,19.48
2018-02-12T02:21:32.323Z,19.46
2018-02-12T02:22:41.014Z,19.4
2018-02-12T02:23:50.238Z,19.43
2018-02-12T02:24:59.199Z,19.47
2018-02-12T02:26:08.417Z,19.47
2018-02-12T02:27:17.637Z,19.44
2018-02-12T02:28:26.858Z,19.43
2018-02-12T02:29:35.813Z,19.47
2018-02-12T02:30:45.298Z,19.48
2018-02-12T02:31:53.988Z,19.48
2018-02-12T02:33:03.483Z,19.5
2018-02-12T02:34:12.718Z,19.5
2018-02-12T02:35:21.677Z,19.46
2018-02-12T02:36:31.174Z,19.47
2018-02-12T02:37:39.867Z,19.48
2018-02-12T02:38:49.367Z,19.46
2018-02-12T02:39:58.865Z,19.54
2018-02-12T02:41:08.116Z,19.4
2018-02-12T02:42:17.344Z,19.41
2018-02-12T02:43:26.038Z,19.46
2018-02-12T02:44:34.998Z,19.44
2018-02-12T02:45:44.225Z,19.48
2018-02-12T02:46:53.470Z,19.5
2018-02-12T02:48:02.433Z,19.44
2018-02-12T02:49:11.394Z,19.44
2018-02-12T02:50:20.086Z,19.44
2018-02-12T02:51:29.322Z,19.46
2018-02-12T02:52:38.818Z,19.44
2018-02-12T02:53:48.034Z,19.48
2018-02-12T02:54:56.991Z,19.44
2018-02-12T02:56:06.214Z,19.41
2018-02-12T02:57:15.172Z,19.47
2018-02-12T02:58:24.391Z,19.43
2018-02-12T02:59:33.344Z,19.37
2018-02-12T03:00:42.847Z,19.47
2018-02-12T03:01:52.070Z,19.47
2018-02-12T03:03:01.036Z,19.47
2018-02-12T03:04:10.003Z,19.44
2018-02-12T03:05:18.958Z,19.33
2018-02-12T03:06:27.651Z,19.36
2018-02-12T03:07:36.337Z,19.46
2018-02-12T03:08:45.291Z,19.37
2018-02-12T03:09:53.979Z,19.48
2018-02-12T03:11:02.932Z,19.51
2018-02-12T03:12:12.154Z,19.47
2018-02-12T03:13:21.377Z,19.44
2018-02-12T03:14:30.069Z,19.51
2018-02-12T03:15:39.026Z,19.47
2018-02-12T03:16:48.509Z,19.4
2018-02-12T03:17:57.462Z,19.5
2018-02-12T03:19:06.682Z,19.44
2018-02-12T03:20:15.902Z,19.43
2018-02-12T03:21:24.593Z,19.46
2018-02-12T03:22:33.549Z,19.44
2018-02-12T03:23:42.502Z,19.4
2018-02-12T03:24:51.455Z,19.44
2018-02-12T03:26:00.416Z,19.37
2018-02-12T03:27:09.368Z,19.46
2018-02-12T03:28:18.857Z,19.41
2018-02-12T03:29:28.075Z,19.44
2018-02-12T03:30:36.763Z,19.37
2018-02-12T03:31:45.454Z,19.41
2018-02-12T03:32:54.671Z,19.44
2018-02-12T03:34:03.889Z,19.33
2018-02-12T03:35:12.845Z,19.43
2018-02-12T03:36:21.534Z,19.41
2018-02-12T03:37:30.223Z,19.43
2018-02-12T03:38:39.493Z,19.37
2018-02-12T03:39:48.183Z,19.37
2018-02-12T03:40:57.404Z,19.4
2018-02-12T03:42:06.353Z,19.46
2018-02-12T03:43:15.312Z,19.31
2018-02-12T03:44:24.266Z,19.47
2018-02-12T03:45:32.956Z,19.37
2018-02-12T03:46:41.915Z,19.4
2018-02-12T03:47:51.132Z,19.32
2018-02-12T03:48:59.820Z,19.43
2018-02-12T03:50:08.509Z,19.41
2018-02-12T03:51:17.464Z,19.41
2018-02-12T03:52:26.155Z,19.43
2018-02-12T03:53:35.112Z,19.47
2018-02-12T03:54:44.069Z,19.47
2018-02-12T03:55:53.027Z,19.36
2018-02-12T03:57:01.709Z,19.47
2018-02-12T03:58:10.670Z,19.47
2018-02-12T03:59:19.352Z,19.46
2018-02-12T04:00:28.042Z,19.43
2018-02-12T04:01:36.729Z,19.37
2018-02-12T04:02:45.418Z,19.37
2018-02-12T04:03:54.375Z,19.33
2018-02-12T04:05:03.067Z,19.37
2018-02-12T04:06:12.038Z,19.33
2018-02-12T04:07:20.990Z,19.43
2018-02-12T04:08:29.678Z,19.41
2018-02-12T04:09:39.169Z,19.44
2018-02-12T04:10:48.124Z,19.36
2018-02-12T04:11:57.084Z,19.39
2018-02-12T04:13:06.304Z,19.44
2018-02-12T04:14:15.291Z,19.39
2018-02-12T04:15:24.247Z,19.4
2018-02-12T04:16:33.744Z,19.41
2018-02-12T04:17:42.428Z,19.44
2018-02-12T04:18:51.120Z,19.39
2018-02-12T04:19:59.808Z,19.41
2018-02-12T04:21:09.560Z,19.43
2018-02-12T04:22:18.510Z,19.4
2018-02-12T04:23:27.466Z,19.33
2018-02-12T04:24:36.424Z,19.43
2018-02-12T04:25:45.112Z,19.32
2018-02-12T04:26:54.067Z,19.41
2018-02-12T04:28:02.757Z,19.36
2018-02-12T04:29:11.449Z,19.41
2018-02-12T04:30:20.138Z,19.43
2018-02-12T04:31:29.388Z,19.32
2018-02-12T04:32:38.080Z,19.47
2018-02-12T04:33:46.772Z,19.41
2018-02-12T04:34:55.728Z,19.43
2018-02-12T04:36:04.419Z,19.4
2018-02-12T04:37:13.371Z,19.36
2018-02-12T04:38:22.856Z,19.44
2018-02-12T04:39:31.549Z,19.5
2018-02-12T04:40:40.504Z,19.43
2018-02-12T04:41:49.996Z,19.33
2018-02-12T04:42:58.950Z,19.4
2018-02-12T04:44:08.174Z,19.37
2018-02-12T04:45:16.866Z,19.32
2018-02-12T04:46:26.085Z,19.36
2018-02-12T04:47:34.775Z,19.37
2018-02-12T04:48:43.464Z,19.4
2018-02-12T04:49:52.425Z,19.44
2018-02-12T04:51:01.918Z,19.44
2018-02-12T04:52:10.875Z,19.4
2018-02-12T04:53:19.831Z,19.32
2018-02-12T04:54:28.787Z,19.39
2018-02-12T04:55:37.746Z,19.47
2018-02-12T04:56:46.698Z,19.47
2018-02-12T04:57:55.654Z,19.39
2018-02-12T04:59:04.610Z,19.4
2018-02-12T05:00:13.569Z,19.44
2018-02-12T05:01:22.791Z,19.37
2018-02-12T05:02:32.011Z,19.36
2018-02-12T05:03:41.230Z,19.4
2018-02-12T05:04:50.717Z,19.39
2018-02-12T05:05:59.688Z,19.39
2018-02-12T05:07:08.914Z,19.4
2018-02-12T05:08:18.667Z,19.44
2018-02-12T05:09:27.359Z,19.46
2018-02-12T05:10:36.333Z,19.41
2018-02-12T05:11:45.542Z,19.43
2018-02-12T05:12:54.497Z,19.44
2018-02-12T05:14:03.186Z,19.4
2018-02-12T05:15:11.881Z,19.41
2018-02-12T05:16:20.835Z,19.4
2018-02-12T05:17:29.790Z,19.4
2018-02-12T05:18:39.008Z,19.4
2018-02-12T05:19:47.969Z,19.37
2018-02-12T05:20:57.194Z,19.41
2018-02-12T05:22:05.880Z,19.36
2018-02-12T05:23:14.574Z,19.4
2018-02-12T05:24:23.260Z,19.41
2018-02-12T05:25:32.487Z,19.43
2018-02-12T05:26:41.178Z,19.4
2018-02-12T05:27:49.866Z,19.44
2018-02-12T05:28:58.822Z,19.36
2018-02-12T05:30:07.514Z,19.44
2018-02-12T05:31:16.472Z,19.36
2018-02-12T05:32:25.429Z,19.43
2018-02-12T05:33:34.649Z,19.36
2018-02-12T05:34:43.341Z,19.4
2018-02-12T05:35:52.026Z,19.37
2018-02-12T05:37:00.714Z,19.4
2018-02-12T05:38:09.672Z,19.39
2018-02-12T05:39:18.899Z,19.4
2018-02-12T05:40:27.855Z,19.43
2018-02-12T05:41:36.812Z,19.36
2018-02-12T05:42:46.034Z,19.41
2018-02-12T05:43:55.257Z,19.47
2018-02-12T05:45:03.946Z,19.39
2018-02-12T05:46:12.901Z,19.43
2018-02-12T05:47:21.593Z,19.44
2018-02-12T05:48:30.281Z,19.39
2018-02-12T05:49:39.242Z,19.36
2018-02-12T05:50:48.464Z,19.37
2018-02-12T05:51:57.418Z,19.44
2018-02-12T05:53:06.375Z,19.44
2018-02-12T05:54:15.598Z,19.39
2018-02-12T05:55:24.551Z,19.43
2018-02-12T05:56:33.505Z,19.39
2018-02-12T05:57:42.200Z,19.4
2018-02-12T05:58:51.753Z,19.41
2018-02-12T06:00:00.671Z,19.44
2018-02-12T06:01:09.633Z,19.4
2018-02-12T06:02:19.125Z,19.4
2018-02-12T06:03:28.081Z,19.44
2018-02-12T06:04:37.037Z,19.43
2018-02-12T06:05:45.989Z,19.39
2018-02-12T06:06:54.682Z,19.37
2018-02-12T06:08:03.642Z,19.37
2018-02-12T06:09:12.602Z,19.47
2018-02-12T06:10:21.827Z,19.48
2018-02-12T06:11:30.789Z,19.47
2018-02-12T06:12:39.741Z,19.46
2018-02-12T06:13:48.748Z,19.5
2018-02-12T06:14:57.703Z,19.37
2018-02-12T06:16:06.930Z,19.5
2018-02-12T06:17:15.619Z,19.5
2018-02-12T06:18:24.573Z,19.41
2018-02-12T06:19:33.262Z,19.44
2018-02-12T06:20:41.952Z,19.43
2018-02-12T06:21:51.438Z,19.39
2018-02-12T06:23:00.392Z,19.43
2018-02-12T06:24:09.345Z,19.4
2018-02-12T06:25:18.306Z,19.47
2018-02-12T06:26:26.995Z,19.47
2018-02-12T06:27:36.212Z,19.41
2018-02-12T06:28:45.698Z,19.39
2018-02-12T06:29:54.649Z,19.5
2018-02-12T06:31:03.340Z,19.44
2018-02-12T06:32:12.563Z,19.37
2018-02-12T06:33:22.052Z,19.4
2018-02-12T06:34:31.006Z,19.44
2018-02-12T06:35:40.237Z,19.4
2018-02-12T06:36:49.459Z,19.43
2018-02-12T06:37:58.147Z,19.44
2018-02-12T06:39:07.100Z,19.32
2018-02-12T06:40:15.788Z,19.44
2018-02-12T06:41:24.740Z,19.44
2018-02-12T06:42:33.696Z,19.44
2018-02-12T06:43:42.650Z,19.46
2018-02-12T06:44:51.343Z,19.4
2018-02-12T06:46:00.032Z,19.37
2018-02-12T06:47:09.257Z,19.44
2018-02-12T06:48:17.947Z,19.47
2018-02-12T06:49:26.637Z,19.4
2018-02-12T06:50:35.587Z,19.39
2018-02-12T06:51:44.832Z,19.46
2018-02-12T06:52:54.051Z,19.32
2018-02-12T06:54:03.011Z,19.44
2018-02-12T06:55:12.229Z,19.47
2018-02-12T06:56:21.186Z,19.4
2018-02-12T06:57:29.878Z,19.36
2018-02-12T06:58:39.097Z,19.47
2018-02-12T06:59:48.321Z,19.44
2018-02-12T07:00:57.540Z,19.47
2018-02-12T07:02:06.229Z,19.4
2018-02-12T07:03:15.189Z,19.4
2018-02-12T07:04:24.147Z,19.46
2018-02-12T07:05:33.102Z,19.44
2018-02-12T07:06:41.793Z,19.48
2018-02-12T07:07:51.281Z,19.46
2018-02-12T07:08:59.971Z,19.46
2018-02-12T07:10:08.931Z,19.51
2018-02-12T07:11:17.619Z,19.51
2018-02-12T07:12:26.573Z,19.46
2018-02-12T07:13:35.532Z,19.46
2018-02-12T07:14:44.489Z,19.51
2018-02-12T07:15:53.181Z,19.51
2018-02-12T07:17:02.929Z,19.43
2018-02-12T07:18:11.617Z,19.47
2018-02-12T07:19:20.575Z,19.44
2018-02-12T07:20:29.571Z,19.5
2018-02-12T07:21:38.533Z,19.44
2018-02-12T07:22:47.220Z,19.41
2018-02-12T07:23:55.910Z,19.46
2018-02-12T07:25:05.135Z,19.43
2018-02-12T07:26:14.090Z,19.44
2018-02-12T07:27:23.042Z,19.4
2018-02-12T07:28:31.996Z,19.46
2018-02-12T07:29:40.689Z,19.39
2018-02-12T07:30:49.646Z,19.4
2018-02-12T07:31:58.337Z,19.37
2018-02-12T07:33:07.560Z,19.43
2018-02-12T07:34:16.514Z,19.32
2018-02-12T07:35:25.473Z,19.33
2018-02-12T07:36:34.427Z,19.4
2018-02-12T07:37:43.116Z,19.43
2018-02-12T07:38:51.806Z,19.41
2018-02-12T07:40:00.498Z,19.32
2018-02-12T07:41:09.188Z,19.36
2018-02-12T07:42:18.142Z,19.37
2018-02-12T07:43:26.830Z,19.4
2018-02-12T07:44:35.792Z,19.4
2018-02-12T07:45:44.747Z,19.39
2018-02-12T07:46:53.701Z,19.4
2018-02-12T07:48:02.922Z,19.39
2018-02-12T07:49:11.613Z,19.37
2018-02-12T07:50:20.571Z,19.39
2018-02-12T07:51:29.257Z,19.39
2018-02-12T07:52:38.214Z,19.36
2018-02-12T07:53:47.165Z,19.39
2018-02-12T07:54:56.116Z,19.39
2018-02-12T07:56:04.811Z,19.36
2018-02-12T07:57:14.042Z,19.36
2018-02-12T07:58:22.732Z,19.39
2018-02-12T07:59:31.420Z,19.39
2018-02-12T08:00:40.685Z,19.37
2018-02-12T08:01:49.640Z,19.4
2018-02-12T08:02:58.597Z,19.4
2018-02-12T08:04:07.563Z,19.26
2018-02-12T08:05:16.519Z,19.37
2018-02-12T08:06:25.478Z,19.37
2018-02-12T08:07:34.442Z,19.36
2018-02-12T08:08:43.931Z,19.36
2018-02-12T08:09:52.618Z,19.31
2018-02-12T08:11:01.580Z,19.37
2018-02-12T08:12:10.623Z,19.36
2018-02-12T08:13:19.860Z,19.32
2018-02-12T08:14:29.090Z,19.33
2018-02-12T08:15:38.045Z,19.31
2018-02-12T08:16:46.734Z,19.36
2018-02-12T08:17:56.491Z,19.37
2018-02-12T08:19:05.181Z,19.36
2018-02-12T08:20:14.144Z,19.36
2018-02-12T08:21:22.830Z,19.36
2018-02-12T08:22:31.520Z,19.23
2018-02-12T08:23:40.820Z,19.33
2018-02-12T08:24:49.776Z,19.37
2018-02-12T08:25:58.995Z,19.33
2018-02-12T08:27:07.948Z,19.39
2018-02-12T08:28:16.906Z,19.4
2018-02-12T08:29:25.864Z,19.36
2018-02-12T08:30:34.556Z,19.36
2018-02-12T08:31:43.776Z,19.33
2018-02-12T08:32:52.465Z,19.39
2018-02-12T08:34:01.158Z,19.37
2018-02-12T08:35:10.382Z,19.32
2018-02-12T08:36:19.605Z,19.33
2018-02-12T08:37:28.562Z,19.33
2018-02-12T08:38:37.252Z,19.37
2018-02-12T08:39:45.943Z,19.32
2018-02-12T08:40:54.900Z,19.33
2018-02-12T08:42:03.588Z,19.36
2018-02-12T08:43:12.813Z,19.36
2018-02-12T08:44:21.769Z,19.36
2018-02-12T08:45:30.459Z,19.32
2018-02-12T08:46:39.418Z,19.36
2018-02-12T08:47:48.374Z,19.32
2018-02-12T08:48:57.069Z,19.36
2018-02-12T08:50:06.294Z,19.33
2018-02-12T08:51:14.981Z,19.36
2018-02-12T08:52:23.672Z,19.39
2018-02-12T08:53:32.363Z,19.36
2018-02-12T08:54:41.318Z,19.36
2018-02-12T08:55:50.007Z,19.36
2018-02-12T08:56:59.283Z,19.4
2018-02-12T08:58:08.212Z,19.39
2018-02-12T08:59:17.165Z,19.32
2018-02-12T09:00:26.117Z,19.31
2018-02-12T09:01:35.611Z,19.36
2018-02-12T09:02:44.566Z,19.33
2018-02-12T09:03:53.519Z,19.26
2018-02-12T09:05:02.476Z,19.37
2018-02-12T09:06:11.434Z,19.39
2018-02-12T09:07:20.389Z,19.39
2018-02-12T09:08:29.347Z,19.32
2018-02-12T09:09:38.582Z,19.39
2018-02-12T09:10:48.328Z,19.4
2018-02-12T09:11:57.018Z,19.36
2018-02-12T09:13:06.564Z,19.4
2018-02-12T09:14:15.514Z,19.43
2018-02-12T09:15:24.468Z,19.39
2018-02-12T09:16:33.161Z,19.39
2018-02-12T09:17:42.118Z,19.32
2018-02-12T09:18:50.809Z,19.43
2018-02-12T09:19:59.503Z,19.36
2018-02-12T09:21:08.724Z,19.4
2018-02-12T09:22:17.680Z,19.33
2018-02-12T09:23:26.642Z,19.36
2018-02-12T09:24:35.333Z,19.43
2018-02-12T09:25:44.016Z,19.44
2018-02-12T09:26:52.974Z,19.39
2018-02-12T09:28:01.931Z,19.39
2018-02-12T09:29:10.620Z,19.39
2018-02-12T09:30:19.312Z,19.33
2018-02-12T09:31:28.005Z,19.4
2018-02-12T09:32:36.960Z,19.4
2018-02-12T09:33:46.186Z,19.39
2018-02-12T09:34:55.141Z,19.36
2018-02-12T09:36:04.361Z,19.33
2018-02-12T09:37:13.847Z,19.37
2018-02-12T09:38:23.073Z,19.44
2018-02-12T09:41:13.056Z,19.39
2018-02-12T09:42:22.015Z,19.41
2018-02-12T09:43:30.706Z,19.44
2018-02-12T09:44:39.927Z,19.44
2018-02-12T09:45:48.691Z,19.47
2018-02-12T09:46:57.912Z,19.47
2018-02-12T09:48:06.606Z,19.39
2018-02-12T09:49:15.826Z,19.39
2018-02-12T09:50:25.116Z,19.39
2018-02-12T09:51:34.070Z,19.36
2018-02-12T09:52:43.028Z,19.41
2018-02-12T09:53:51.983Z,19.39
2018-02-12T09:55:00.674Z,19.4
2018-02-12T09:56:09.365Z,19.32
2018-02-12T09:57:18.317Z,19.4
2018-02-12T09:58:27.347Z,19.33
2018-02-12T09:59:36.303Z,19.39
2018-02-12T10:00:45.262Z,19.37
2018-02-12T10:01:54.754Z,19.4
2018-02-12T10:03:03.708Z,19.44
2018-02-12T10:04:12.667Z,19.46
2018-02-12T10:05:21.913Z,19.46
2018-02-12T10:06:31.191Z,19.44
2018-02-12T10:07:39.881Z,19.39
2018-02-12T10:08:48.906Z,19.4
2018-02-12T10:09:57.859Z,19.47
2018-02-12T10:11:06.551Z,19.44
2018-02-12T10:12:15.509Z,19.44
2018-02-12T10:13:24.731Z,19.44
2018-02-12T10:14:33.960Z,19.39
2018-02-12T10:15:42.651Z,19.37
2018-02-12T10:16:51.607Z,19.36
2018-02-12T10:18:00.566Z,19.43
2018-02-12T10:19:09.524Z,19.43
2018-02-12T10:20:18.211Z,19.43
2018-02-12T10:21:26.901Z,19.36
2018-02-12T10:22:36.386Z,19.48
2018-02-12T10:23:45.340Z,19.46
2018-02-12T10:24:54.292Z,19.5
2018-02-12T10:26:03.252Z,19.51
2018-02-12T10:27:12.473Z,19.55
2018-02-12T10:28:21.695Z,19.5
2018-02-12T10:29:30.387Z,19.5
2018-02-12T10:30:39.612Z,19.44
2018-02-12T10:31:48.568Z,19.56
2018-02-12T10:32:57.795Z,19.54
2018-02-12T10:34:07.016Z,19.51
2018-02-12T10:35:15.970Z,19.55
2018-02-12T10:36:24.928Z,19.59
2018-02-12T10:37:33.916Z,19.58
2018-02-12T10:38:43.143Z,19.58
2018-02-12T10:39:52.626Z,19.62
2018-02-12T10:41:01.317Z,19.51
2018-02-12T10:42:10.272Z,19.62
2018-02-12T10:43:18.965Z,19.55
2018-02-12T10:44:27.922Z,19.55
2018-02-12T10:45:37.143Z,19.58
2018-02-12T10:46:46.100Z,19.62
2018-02-12T10:47:55.061Z,19.54
2018-02-12T10:49:04.333Z,19.55
2018-02-12T10:50:13.583Z,19.58
2018-02-12T10:51:22.541Z,19.56
2018-02-12T10:52:31.498Z,19.54
2018-02-12T10:53:40.726Z,19.54
2018-02-12T10:54:49.683Z,19.54
2018-02-12T10:55:58.370Z,19.54
2018-02-12T10:57:07.595Z,19.51
2018-02-12T10:58:16.549Z,19.51
2018-02-12T10:59:25.773Z,19.51
2018-02-12T11:00:34.725Z,19.5
2018-02-12T11:01:43.943Z,19.56
2018-02-12T11:02:53.430Z,19.58
2018-02-12T11:04:02.384Z,19.59
2018-02-12T11:05:11.609Z,19.55
2018-02-12T11:06:20.301Z,19.51
2018-02-12T11:07:29.265Z,19.5
2018-02-12T11:08:38.486Z,19.58
2018-02-12T11:09:47.709Z,19.58
2018-02-12T11:10:56.399Z,19.56
2018-02-12T11:12:05.884Z,19.63
2018-02-12T11:13:14.840Z,19.59
2018-02-12T11:14:24.095Z,19.66
2018-02-12T11:15:33.311Z,19.61
2018-02-12T11:16:42.003Z,19.68
2018-02-12T11:17:50.957Z,19.71
2018-02-12T11:19:00.181Z,19.68
2018-02-12T11:20:09.139Z,19.73
2018-02-12T11:21:18.362Z,19.69
2018-02-12T11:22:27.053Z,19.73
2018-02-12T11:23:36.012Z,19.78
2018-02-12T11:24:44.967Z,19.71
2018-02-12T11:25:53.918Z,19.76
2018-02-12T11:27:03.408Z,19.78
2018-02-12T11:28:12.622Z,19.73
2018-02-12T11:29:21.581Z,19.73
2018-02-12T11:30:30.275Z,19.8
2018-02-12T11:31:39.227Z,19.73
2018-02-12T11:32:48.179Z,19.83
2018-02-12T11:33:57.134Z,19.81
2018-02-12T11:35:06.358Z,19.81
2018-02-12T11:36:15.316Z,19.8
2018-02-12T11:37:24.270Z,19.83
2018-02-12T11:38:33.490Z,19.87
2018-02-12T11:39:42.177Z,19.88
2018-02-12T11:40:50.870Z,19.81
2018-02-12T11:41:59.826Z,19.98
2018-02-12T11:43:09.044Z,19.88
2018-02-12T11:44:18.273Z,19.91
2018-02-12T11:45:27.228Z,19.96
2018-02-12T11:46:36.180Z,19.99
2018-02-12T11:47:44.868Z,20.02
2018-02-12T11:48:54.355Z,20.06
2018-02-12T11:50:03.317Z,20.06
2018-02-12T11:51:12.537Z,20.06
2018-02-12T11:52:21.226Z,19.95
2018-02-12T11:53:30.179Z,20.1
2018-02-12T11:54:39.671Z,19.98
2018-02-12T11:55:48.628Z,19.94
2018-02-12T11:56:57.583Z,20.01
2018-02-12T11:58:06.275Z,19.96
2018-02-12T11:59:15.499Z,20.02
2018-02-12T12:00:24.459Z,19.99
2018-02-12T12:01:33.413Z,19.99
2018-02-12T12:02:42.372Z,20.01
2018-02-12T12:03:51.595Z,19.98
2018-02-12T12:05:00.827Z,19.99
2018-02-12T12:06:10.050Z,20.1
2018-02-12T12:07:19.271Z,20.03
2018-02-12T12:08:28.487Z,20.03
2018-02-12T12:09:37.444Z,19.99
2018-02-12T12:10:46.205Z,20.06
2018-02-12T12:11:54.900Z,19.98
2018-02-12T12:13:04.121Z,19.98
2018-02-12T12:14:13.340Z,20.03
2018-02-12T12:15:22.297Z,20.08
2018-02-12T12:16:31.520Z,19.98
2018-02-12T12:17:40.742Z,20.06
2018-02-12T12:18:49.696Z,20.03
2018-02-12T12:19:58.386Z,20.02
2018-02-12T12:21:07.076Z,19.99
2018-02-12T12:22:15.767Z,20.05
2018-02-12T12:23:24.457Z,20.02
2018-02-12T12:24:33.420Z,20.03
2018-02-12T12:25:42.648Z,20.02
2018-02-12T12:26:51.867Z,19.94
2018-02-12T12:28:00.819Z,20.03
2018-02-12T12:29:10.033Z,19.92
2018-02-12T12:30:19.328Z,20.03
2018-02-12T12:31:28.551Z,20.01
2018-02-12T12:32:37.241Z,20.11
2018-02-12T12:33:46.727Z,20.08
2018-02-12T12:34:55.685Z,19.91
2018-02-12T12:36:04.639Z,19.98
2018-02-12T12:37:13.332Z,20.03
2018-02-12T12:38:22.557Z,19.88
2018-02-12T12:39:32.049Z,20.05
2018-02-12T12:40:41.278Z,19.98
2018-02-12T12:41:49.973Z,20.03
2018-02-12T12:42:58.928Z,20.03
2018-02-12T12:44:08.148Z,20.06
2018-02-12T12:45:17.632Z,20.1
2018-02-12T12:46:26.324Z,19.96
2018-02-12T12:47:35.280Z,19.94
2018-02-12T12:48:44.700Z,19.92
2018-02-12T12:49:53.919Z,19.98
2018-02-12T12:51:02.879Z,19.98
2018-02-12T12:52:12.100Z,19.92
2018-02-12T12:53:21.586Z,19.91
2018-02-12T12:54:30.549Z,19.88
2018-02-12T12:55:39.772Z,19.98
2018-02-12T12:56:48.996Z,19.96
2018-02-12T12:57:57.952Z,19.94
2018-02-12T12:59:06.950Z,19.99
2018-02-12T13:00:16.393Z,19.87
2018-02-12T13:01:25.153Z,19.83
2018-02-12T13:02:33.841Z,19.81
2018-02-12T13:03:42.797Z,19.96
2018-02-12T13:04:51.754Z,19.81
2018-02-12T13:06:01.238Z,19.86
2018-02-12T13:07:09.927Z,19.84
2018-02-12T13:08:18.887Z,19.81
2018-02-12T13:09:27.843Z,19.88
2018-02-12T13:10:36.792Z,19.84
2018-02-12T13:11:45.482Z,19.83
2018-02-12T13:12:54.169Z,19.95
2018-02-12T13:14:03.125Z,19.84
2018-02-12T13:15:12.082Z,19.84
2018-02-12T13:16:21.090Z,19.81
2018-02-12T13:17:30.577Z,19.81
2018-02-12T13:18:39.534Z,19.86
2018-02-12T13:19:48.222Z,19.78
2018-02-12T13:20:57.176Z,19.86
2018-02-12T13:22:06.136Z,19.84
2018-02-12T13:23:14.830Z,19.87
2018-02-12T13:24:23.789Z,19.81
2018-02-12T13:25:33.288Z,19.78
2018-02-12T13:26:42.778Z,19.69
2018-02-12T13:27:51.468Z,19.74
2018-02-12T13:29:00.430Z,19.73
2018-02-12T13:30:09.387Z,19.71
2018-02-12T13:31:18.077Z,19.71
2018-02-12T13:32:27.036Z,19.69
2018-02-12T13:33:36.257Z,19.74
2018-02-12T13:34:45.212Z,19.83
2018-02-12T13:35:53.898Z,19.71
2018-02-12T13:37:02.851Z,19.81
2018-02-12T13:38:11.807Z,19.84
2018-02-12T13:39:20.498Z,19.94
2018-02-12T13:40:29.463Z,19.84
2018-02-12T13:41:38.414Z,19.86
2018-02-12T13:42:47.899Z,19.81
2018-02-12T13:43:57.671Z,19.96
2018-02-12T13:45:06.895Z,19.98
2018-02-12T13:46:15.858Z,20.02
2018-02-12T13:47:24.548Z,19.98
2018-02-12T13:48:33.503Z,20.1
2018-02-12T13:49:42.465Z,19.98
2018-02-12T13:50:51.428Z,20.03
2018-02-12T13:52:00.116Z,20.03
2018-02-12T13:53:09.600Z,19.99
2018-02-12T13:54:18.558Z,20.03
2018-02-12T13:55:27.249Z,20.1
2018-02-12T13:56:36.737Z,20.02
2018-02-12T13:57:45.693Z,20.11
2018-02-12T13:58:54.650Z,20.14
2018-02-12T14:00:03.615Z,20.08
2018-02-12T14:01:12.573Z,20.08
2018-02-12T14:02:21.263Z,20.01
2018-02-12T14:03:30.481Z,20.06
2018-02-12T14:04:40.052Z,19.99
2018-02-12T14:05:49.473Z,20.01
2018-02-12T14:06:58.566Z,19.95
2018-02-12T14:08:07.698Z,20.01
2018-02-12T14:09:16.867Z,20.05
2018-02-12T14:10:25.975Z,20.05
2018-02-12T14:11:35.153Z,19.96
2018-02-12T14:12:44.216Z,19.88
2018-02-12T14:13:53.494Z,20.03
2018-02-12T14:15:02.765Z,19.87
2018-02-12T14:16:12.312Z,20.01
2018-02-12T14:17:21.263Z,20.05
2018-02-12T14:18:31.339Z,19.94
2018-02-12T14:19:40.528Z,19.91
2018-02-12T14:20:50.009Z,20.03
2018-02-12T14:21:59.565Z,19.98
2018-02-12T14:23:09.336Z,20.01
2018-02-12T14:24:19.292Z,19.92
2018-02-12T14:25:29.298Z,19.92
2018-02-12T14:26:39.178Z,20.02
2018-02-12T14:27:48.762Z,20.01
2018-02-12T14:28:59.182Z,19.92
2018-02-12T14:30:08.199Z,20.02
2018-02-12T14:31:17.298Z,19.98
2018-02-12T14:32:26.402Z,20.01
2018-02-12T14:33:35.548Z,20.01
2018-02-12T14:34:44.338Z,20.03
2018-02-12T14:35:53.649Z,19.91
2018-02-12T14:37:02.479Z,20.01
2018-02-12T14:38:11.465Z,20.1
2018-02-12T14:39:20.482Z,20.02
2018-02-12T14:40:29.205Z,19.87
2018-02-12T14:41:37.955Z,20.02
2018-02-12T14:42:46.670Z,19.95
2018-02-12T14:43:56.330Z,20.01
2018-02-12T14:45:05.133Z,20.02
2018-02-12T14:46:14.098Z,20.02
2018-02-12T14:47:22.791Z,20.02
2018-02-12T14:48:31.749Z,19.99
2018-02-12T14:49:40.789Z,19.96
2018-02-12T14:50:50.459Z,20.06
2018-02-12T14:51:59.148Z,19.98
2018-02-12T14:53:08.168Z,20.05